sensor_id;sensor_type;location;lat;lon;timestamp;pressure;altitude;pressure_sealevel;temperature;humidity
44839;BME280;30576;42.098;24.876;2023-04-26T00:01:45;98681.06;;;13.46;89.53
44839;BME280;30576;42.098;24.876;2023-04-26T00:04:33;98695.69;;;13.33;89.90
44839;BME280;30576;42.098;24.876;2023-04-26T00:14:24;98790.63;;;14.07;89.08
44839;BME280;30576;42.098;24.876;2023-04-26T00:17:08;98778.63;;;14.19;88.68
44839;BME280;30576;42.098;24.876;2023-04-26T00:20:15;98792.25;;;14.11;89.07
44839;BME280;30576;42.098;24.876;2023-04-26T00:22:59;98740.16;;;13.89;88.73
44839;BME280;30576;42.098;24.876;2023-04-26T00:25:40;98661.66;;;13.46;89.77
44839;BME280;30576;42.098;24.876;2023-04-26T00:28:22;98707.28;;;13.73;90.26
44839;BME280;30576;42.098;24.876;2023-04-26T00:34:13;98701.31;;;13.68;90.25
44839;BME280;30576;42.098;24.876;2023-04-26T00:36:40;98651.00;;;13.47;89.46
44839;BME280;30576;42.098;24.876;2023-04-26T00:39:16;98679.53;;;13.61;89.68
44839;BME280;30576;42.098;24.876;2023-04-26T00:42:01;98675.13;;;13.81;88.58
44839;BME280;30576;42.098;24.876;2023-04-26T00:44:27;98649.19;;;13.48;88.28
44839;BME280;30576;42.098;24.876;2023-04-26T00:46:52;98733.91;;;14.11;88.72
44839;BME280;30576;42.098;24.876;2023-04-26T00:49:22;98684.97;;;13.97;87.53
44839;BME280;30576;42.098;24.876;2023-04-26T00:51:49;98692.69;;;13.83;88.35
44839;BME280;30576;42.098;24.876;2023-04-26T00:54:15;98650.31;;;13.63;88.11
44839;BME280;30576;42.098;24.876;2023-04-26T00:56:43;98662.69;;;13.83;88.34
44839;BME280;30576;42.098;24.876;2023-04-26T00:59:11;98668.84;;;13.83;87.91
44839;BME280;30576;42.098;24.876;2023-04-26T01:01:36;98667.50;;;13.93;87.60
44839;BME280;30576;42.098;24.876;2023-04-26T01:04:26;98736.44;;;14.33;87.33
44839;BME280;30576;42.098;24.876;2023-04-26T01:07:06;98645.69;;;13.87;87.53
44839;BME280;30576;42.098;24.876;2023-04-26T01:09:43;98654.47;;;13.89;87.13
44839;BME280;30576;42.098;24.876;2023-04-26T01:12:22;98617.38;;;13.68;86.30
44839;BME280;30576;42.098;24.876;2023-04-26T01:15:06;98733.19;;;14.26;86.93
44839;BME280;30576;42.098;24.876;2023-04-26T01:17:38;98696.84;;;14.09;86.72
44839;BME280;30576;42.098;24.876;2023-04-26T01:20:04;98703.59;;;14.17;86.41
44839;BME280;30576;42.098;24.876;2023-04-26T01:22:33;98636.75;;;13.70;86.94
44839;BME280;30576;42.098;24.876;2023-04-26T01:25:01;98681.72;;;14.11;85.91
44839;BME280;30576;42.098;24.876;2023-04-26T01:27:28;98622.31;;;13.76;85.76
44839;BME280;30576;42.098;24.876;2023-04-26T01:29:54;98638.03;;;13.81;85.31
44839;BME280;30576;42.098;24.876;2023-04-26T01:32:19;98686.03;;;13.54;83.92
44839;BME280;30576;42.098;24.876;2023-04-26T01:34:45;98705.09;;;13.41;83.87
44839;BME280;30576;42.098;24.876;2023-04-26T01:37:11;98637.22;;;12.96;82.99
44839;BME280;30576;42.098;24.876;2023-04-26T01:39:36;98700.34;;;13.28;82.92
44839;BME280;30576;42.098;24.876;2023-04-26T01:42:02;98607.72;;;12.63;82.17
44839;BME280;30576;42.098;24.876;2023-04-26T01:44:29;98638.72;;;12.59;81.65
44839;BME280;30576;42.098;24.876;2023-04-26T01:46:55;98671.06;;;12.88;82.04
44839;BME280;30576;42.098;24.876;2023-04-26T01:49:20;98690.63;;;13.06;81.13
44839;BME280;30576;42.098;24.876;2023-04-26T01:51:46;98621.53;;;12.69;80.75
44839;BME280;30576;42.098;24.876;2023-04-26T01:54:11;98678.88;;;13.35;80.27
44839;BME280;30576;42.098;24.876;2023-04-26T01:56:36;98608.63;;;12.84;81.10
44839;BME280;30576;42.098;24.876;2023-04-26T01:59:02;98686.63;;;13.40;80.70
44839;BME280;30576;42.098;24.876;2023-04-26T02:01:27;98612.69;;;12.70;80.18
44839;BME280;30576;42.098;24.876;2023-04-26T02:03:53;98670.75;;;12.96;80.89
44839;BME280;30576;42.098;24.876;2023-04-26T02:06:19;98610.94;;;12.69;81.30
44839;BME280;30576;42.098;24.876;2023-04-26T02:08:45;98625.59;;;12.78;80.72
44839;BME280;30576;42.098;24.876;2023-04-26T02:11:11;98668.22;;;12.93;80.72
44839;BME280;30576;42.098;24.876;2023-04-26T02:13:36;98650.41;;;12.76;80.91
44839;BME280;30576;42.098;24.876;2023-04-26T02:16:02;98693.34;;;13.04;81.07
44839;BME280;30576;42.098;24.876;2023-04-26T02:18:28;98688.56;;;12.92;81.13
44839;BME280;30576;42.098;24.876;2023-04-26T02:20:54;98661.22;;;12.47;81.85
44839;BME280;30576;42.098;24.876;2023-04-26T02:23:19;98672.22;;;12.36;83.50
44839;BME280;30576;42.098;24.876;2023-04-26T02:25:45;98693.13;;;12.88;81.77
44839;BME280;30576;42.098;24.876;2023-04-26T02:28:14;98625.56;;;12.12;82.61
44839;BME280;30576;42.098;24.876;2023-04-26T02:30:43;98631.53;;;12.17;82.53
44839;BME280;30576;42.098;24.876;2023-04-26T02:33:11;98709.97;;;12.64;82.94
44839;BME280;30576;42.098;24.876;2023-04-26T02:35:37;98661.66;;;12.13;84.00
44839;BME280;30576;42.098;24.876;2023-04-26T02:38:03;98631.75;;;12.11;82.95
44839;BME280;30576;42.098;24.876;2023-04-26T02:40:31;98711.53;;;12.46;83.78
44839;BME280;30576;42.098;24.876;2023-04-26T02:42:59;98646.09;;;12.05;84.01
44839;BME280;30576;42.098;24.876;2023-04-26T02:45:24;98702.44;;;12.53;82.86
44839;BME280;30576;42.098;24.876;2023-04-26T02:47:50;98593.84;;;11.88;83.15
44839;BME280;30576;42.098;24.876;2023-04-26T02:50:15;98636.50;;;12.03;83.27
44839;BME280;30576;42.098;24.876;2023-04-26T02:52:41;98710.38;;;12.53;83.86
44839;BME280;30576;42.098;24.876;2023-04-26T02:55:06;98715.44;;;12.59;84.06
44839;BME280;30576;42.098;24.876;2023-04-26T02:57:32;98716.88;;;12.44;84.45
44839;BME280;30576;42.098;24.876;2023-04-26T02:59:57;98648.91;;;12.00;85.63
44839;BME280;30576;42.098;24.876;2023-04-26T03:02:23;98725.16;;;12.35;85.83
44839;BME280;30576;42.098;24.876;2023-04-26T03:04:50;98696.09;;;12.11;85.85
44839;BME280;30576;42.098;24.876;2023-04-26T03:07:16;98665.78;;;11.96;86.06
44839;BME280;30576;42.098;24.876;2023-04-26T03:09:42;98694.53;;;12.29;85.76
44839;BME280;30576;42.098;24.876;2023-04-26T03:12:07;98724.91;;;12.65;85.07
44839;BME280;30576;42.098;24.876;2023-04-26T03:14:34;98677.56;;;12.35;85.19
44839;BME280;30576;42.098;24.876;2023-04-26T03:17:00;98652.22;;;12.06;84.36
44839;BME280;30576;42.098;24.876;2023-04-26T03:19:27;98670.50;;;12.12;84.10
44839;BME280;30576;42.098;24.876;2023-04-26T03:21:53;98707.38;;;12.39;84.91
44839;BME280;30576;42.098;24.876;2023-04-26T03:24:19;98622.91;;;11.88;84.72
44839;BME280;30576;42.098;24.876;2023-04-26T03:26:44;98691.94;;;12.28;85.12
44839;BME280;30576;42.098;24.876;2023-04-26T03:29:10;98719.25;;;12.52;84.65
44839;BME280;30576;42.098;24.876;2023-04-26T03:31:36;98619.50;;;12.32;83.82
44839;BME280;30576;42.098;24.876;2023-04-26T03:34:03;98627.03;;;12.43;83.30
44839;BME280;30576;42.098;24.876;2023-04-26T03:36:28;98649.84;;;12.67;82.31
44839;BME280;30576;42.098;24.876;2023-04-26T03:38:54;98708.19;;;13.08;82.55
44839;BME280;30576;42.098;24.876;2023-04-26T03:41:20;98646.28;;;12.68;82.40
44839;BME280;30576;42.098;24.876;2023-04-26T03:43:46;98640.19;;;12.66;82.43
44839;BME280;30576;42.098;24.876;2023-04-26T03:46:12;98661.09;;;12.50;82.87
44839;BME280;30576;42.098;24.876;2023-04-26T03:48:37;98737.53;;;12.80;84.85
44839;BME280;30576;42.098;24.876;2023-04-26T03:51:03;98685.41;;;12.60;84.34
44839;BME280;30576;42.098;24.876;2023-04-26T03:53:28;98666.69;;;12.65;83.72
44839;BME280;30576;42.098;24.876;2023-04-26T03:55:54;98682.63;;;12.63;84.76
44839;BME280;30576;42.098;24.876;2023-04-26T03:58:20;98667.91;;;12.34;85.11
44839;BME280;30576;42.098;24.876;2023-04-26T04:00:46;98694.28;;;12.59;84.47
44839;BME280;30576;42.098;24.876;2023-04-26T04:03:11;98751.78;;;13.00;83.70
44839;BME280;30576;42.098;24.876;2023-04-26T04:05:37;98665.53;;;12.50;83.96
44839;BME280;30576;42.098;24.876;2023-04-26T04:08:02;98749.84;;;13.03;84.19
44839;BME280;30576;42.098;24.876;2023-04-26T04:10:28;98684.34;;;12.42;84.66
44839;BME280;30576;42.098;24.876;2023-04-26T04:12:55;98744.50;;;12.83;85.80
44839;BME280;30576;42.098;24.876;2023-04-26T04:15:20;98732.44;;;12.76;85.28
44839;BME280;30576;42.098;24.876;2023-04-26T04:17:46;98641.41;;;12.35;85.67
44839;BME280;30576;42.098;24.876;2023-04-26T04:20:12;98743.59;;;13.06;84.63
44839;BME280;30576;42.098;24.876;2023-04-26T04:22:38;98661.84;;;12.54;85.00
44839;BME280;30576;42.098;24.876;2023-04-26T04:25:07;98657.25;;;12.59;83.27
44839;BME280;30576;42.098;24.876;2023-04-26T04:27:33;98669.28;;;12.66;82.93
44839;BME280;30576;42.098;24.876;2023-04-26T04:29:59;98669.47;;;12.62;83.17
44839;BME280;30576;42.098;24.876;2023-04-26T04:32:28;98760.41;;;13.27;82.95
44839;BME280;30576;42.098;24.876;2023-04-26T04:34:53;98631.88;;;12.76;83.45
44839;BME280;30576;42.098;24.876;2023-04-26T04:37:19;98736.38;;;13.32;83.43
44839;BME280;30576;42.098;24.876;2023-04-26T04:39:45;98665.28;;;12.78;83.28
44839;BME280;30576;42.098;24.876;2023-04-26T04:42:10;98666.28;;;12.98;82.83
44839;BME280;30576;42.098;24.876;2023-04-26T04:44:36;98635.97;;;12.62;82.90
44839;BME280;30576;42.098;24.876;2023-04-26T04:47:02;98739.53;;;13.41;82.32
44839;BME280;30576;42.098;24.876;2023-04-26T04:49:28;98656.09;;;13.09;81.95
44839;BME280;30576;42.098;24.876;2023-04-26T04:51:55;98671.66;;;13.17;80.94
44839;BME280;30576;42.098;24.876;2023-04-26T04:54:21;98660.16;;;13.18;80.76
44839;BME280;30576;42.098;24.876;2023-04-26T04:56:47;98749.53;;;13.76;79.46
44839;BME280;30576;42.098;24.876;2023-04-26T04:59:12;98681.50;;;13.35;78.55
44839;BME280;30576;42.098;24.876;2023-04-26T05:01:38;98746.09;;;13.94;77.83
44839;BME280;30576;42.098;24.876;2023-04-26T05:04:04;98667.53;;;13.52;78.27
44839;BME280;30576;42.098;24.876;2023-04-26T05:06:30;98679.13;;;13.70;77.41
44839;BME280;30576;42.098;24.876;2023-04-26T05:08:56;98666.25;;;13.82;75.79
44839;BME280;30576;42.098;24.876;2023-04-26T05:11:22;98752.16;;;14.57;74.43
44839;BME280;30576;42.098;24.876;2023-04-26T05:13:48;98666.50;;;13.96;75.02
44839;BME280;30576;42.098;24.876;2023-04-26T05:16:14;98672.19;;;14.07;74.25
44839;BME280;30576;42.098;24.876;2023-04-26T05:18:39;98684.41;;;13.91;74.83
44839;BME280;30576;42.098;24.876;2023-04-26T05:21:05;98700.69;;;14.02;75.11
44839;BME280;30576;42.098;24.876;2023-04-26T05:23:31;98695.31;;;14.04;76.03
44839;BME280;30576;42.098;24.876;2023-04-26T05:26:03;98695.44;;;14.01;76.41
44839;BME280;30576;42.098;24.876;2023-04-26T05:28:29;98700.00;;;14.18;76.33
44839;BME280;30576;42.098;24.876;2023-04-26T05:30:54;98710.34;;;14.43;76.02
44839;BME280;30576;42.098;24.876;2023-04-26T05:33:20;98737.88;;;14.40;77.14
44839;BME280;30576;42.098;24.876;2023-04-26T05:35:47;98710.72;;;14.35;76.24
44839;BME280;30576;42.098;24.876;2023-04-26T05:38:12;98657.81;;;13.73;76.92
44839;BME280;30576;42.098;24.876;2023-04-26T05:40:37;98732.16;;;14.10;77.22
44839;BME280;30576;42.098;24.876;2023-04-26T05:43:03;98738.16;;;14.53;75.92
44839;BME280;30576;42.098;24.876;2023-04-26T05:45:28;98639.91;;;13.78;72.27
44839;BME280;30576;42.098;24.876;2023-04-26T05:47:54;98664.66;;;13.98;72.32
44839;BME280;30576;42.098;24.876;2023-04-26T05:50:19;98740.69;;;14.56;73.66
44839;BME280;30576;42.098;24.876;2023-04-26T05:52:45;98739.47;;;14.44;73.19
44839;BME280;30576;42.098;24.876;2023-04-26T05:55:10;98653.56;;;14.09;72.25
44839;BME280;30576;42.098;24.876;2023-04-26T05:57:37;98706.47;;;14.50;71.54
44839;BME280;30576;42.098;24.876;2023-04-26T06:00:03;98661.81;;;14.22;70.84
44839;BME280;30576;42.098;24.876;2023-04-26T06:02:30;98660.66;;;14.46;70.35
44839;BME280;30576;42.098;24.876;2023-04-26T06:04:55;98704.75;;;14.87;71.00
44839;BME280;30576;42.098;24.876;2023-04-26T06:07:21;98701.78;;;15.12;68.61
44839;BME280;30576;42.098;24.876;2023-04-26T06:09:49;98724.88;;;15.10;67.71
44839;BME280;30576;42.098;24.876;2023-04-26T06:12:15;98707.97;;;15.48;68.43
44839;BME280;30576;42.098;24.876;2023-04-26T06:14:54;98734.41;;;15.68;65.71
44839;BME280;30576;42.098;24.876;2023-04-26T06:17:22;98709.47;;;15.71;69.26
44839;BME280;30576;42.098;24.876;2023-04-26T06:19:47;98707.59;;;16.06;67.22
44839;BME280;30576;42.098;24.876;2023-04-26T06:22:13;98739.47;;;16.41;66.64
44839;BME280;30576;42.098;24.876;2023-04-26T06:24:38;98672.94;;;16.08;65.60
44839;BME280;30576;42.098;24.876;2023-04-26T06:27:09;98733.03;;;16.45;64.23
44839;BME280;30576;42.098;24.876;2023-04-26T06:29:38;98678.94;;;16.45;62.68
44839;BME280;30576;42.098;24.876;2023-04-26T06:32:09;98683.56;;;16.57;64.28
44839;BME280;30576;42.098;24.876;2023-04-26T06:34:43;98704.72;;;17.08;61.92
44839;BME280;30576;42.098;24.876;2023-04-26T06:37:14;98739.13;;;17.74;63.72
44839;BME280;30576;42.098;24.876;2023-04-26T06:39:40;98700.25;;;17.69;61.71
44839;BME280;30576;42.098;24.876;2023-04-26T06:42:08;98651.72;;;17.48;60.05
44839;BME280;30576;42.098;24.876;2023-04-26T06:44:39;98678.19;;;17.82;58.55
44839;BME280;30576;42.098;24.876;2023-04-26T06:47:15;98669.00;;;17.57;57.86
44839;BME280;30576;42.098;24.876;2023-04-26T06:49:43;98661.09;;;17.25;56.53
44839;BME280;30576;42.098;24.876;2023-04-26T06:52:09;98707.41;;;18.14;57.50
44839;BME280;30576;42.098;24.876;2023-04-26T06:54:39;98651.63;;;17.50;55.80
44839;BME280;30576;42.098;24.876;2023-04-26T06:57:05;98666.75;;;17.80;56.26
44839;BME280;30576;42.098;24.876;2023-04-26T06:59:33;98670.00;;;16.78;54.23
44839;BME280;30576;42.098;24.876;2023-04-26T07:02:01;98706.94;;;16.68;60.25
44839;BME280;30576;42.098;24.876;2023-04-26T07:04:47;98691.56;;;17.21;56.89
44839;BME280;30576;42.098;24.876;2023-04-26T07:07:13;98672.03;;;17.51;55.61
44839;BME280;30576;42.098;24.876;2023-04-26T07:09:39;98699.53;;;17.82;53.02
44839;BME280;30576;42.098;24.876;2023-04-26T07:12:06;98681.84;;;17.95;53.07
44839;BME280;30576;42.098;24.876;2023-04-26T07:14:32;98683.25;;;17.42;53.37
44839;BME280;30576;42.098;24.876;2023-04-26T07:17:10;98679.84;;;17.54;56.56
44839;BME280;30576;42.098;24.876;2023-04-26T07:19:35;98680.13;;;17.64;56.68
44839;BME280;30576;42.098;24.876;2023-04-26T07:22:01;98689.31;;;17.74;54.96
44839;BME280;30576;42.098;24.876;2023-04-26T07:24:28;98705.50;;;18.01;54.80
44839;BME280;30576;42.098;24.876;2023-04-26T07:26:55;98736.75;;;18.14;53.76
44839;BME280;30576;42.098;24.876;2023-04-26T07:29:23;98695.28;;;18.08;54.61
44839;BME280;30576;42.098;24.876;2023-04-26T07:31:49;98726.19;;;19.52;52.92
44839;BME280;30576;42.098;24.876;2023-04-26T07:34:14;98676.69;;;19.72;52.00
44839;BME280;30576;42.098;24.876;2023-04-26T07:36:40;98682.66;;;19.49;51.56
44839;BME280;30576;42.098;24.876;2023-04-26T07:39:05;98689.28;;;19.17;51.26
44839;BME280;30576;42.098;24.876;2023-04-26T07:41:33;98671.16;;;18.38;52.17
44839;BME280;30576;42.098;24.876;2023-04-26T07:43:58;98685.13;;;18.85;53.13
44839;BME280;30576;42.098;24.876;2023-04-26T07:46:24;98700.91;;;19.43;49.16
44839;BME280;30576;42.098;24.876;2023-04-26T07:48:49;98728.34;;;19.99;48.62
44839;BME280;30576;42.098;24.876;2023-04-26T07:51:15;98758.09;;;19.82;49.64
44839;BME280;30576;42.098;24.876;2023-04-26T07:53:40;98697.72;;;19.10;48.91
44839;BME280;30576;42.098;24.876;2023-04-26T07:56:07;98770.72;;;19.53;51.42
44839;BME280;30576;42.098;24.876;2023-04-26T07:58:33;98721.75;;;18.83;48.78
44839;BME280;30576;42.098;24.876;2023-04-26T08:01:00;98711.03;;;18.41;50.49
44839;BME280;30576;42.098;24.876;2023-04-26T08:03:26;98673.16;;;17.92;51.98
44839;BME280;30576;42.098;24.876;2023-04-26T08:05:52;98651.28;;;17.56;52.90
44839;BME280;30576;42.098;24.876;2023-04-26T08:08:18;98758.69;;;18.33;53.31
44839;BME280;30576;42.098;24.876;2023-04-26T08:10:44;98735.22;;;18.24;52.82
44839;BME280;30576;42.098;24.876;2023-04-26T08:13:10;98726.81;;;17.57;52.79
44839;BME280;30576;42.098;24.876;2023-04-26T08:15:35;98681.97;;;17.63;52.97
44839;BME280;30576;42.098;24.876;2023-04-26T08:18:01;98714.72;;;17.65;51.96
44839;BME280;30576;42.098;24.876;2023-04-26T08:20:26;98672.44;;;17.29;51.17
44839;BME280;30576;42.098;24.876;2023-04-26T08:22:55;98658.34;;;16.64;52.02
44839;BME280;30576;42.098;24.876;2023-04-26T08:25:22;98704.00;;;17.36;53.18
44839;BME280;30576;42.098;24.876;2023-04-26T08:27:47;98688.63;;;17.26;54.12
44839;BME280;30576;42.098;24.876;2023-04-26T08:30:13;98706.75;;;17.19;52.07
44839;BME280;30576;42.098;24.876;2023-04-26T08:32:38;98686.13;;;17.53;51.62
44839;BME280;30576;42.098;24.876;2023-04-26T08:35:05;98678.25;;;17.66;51.47
44839;BME280;30576;42.098;24.876;2023-04-26T08:37:30;98696.88;;;17.96;53.00
44839;BME280;30576;42.098;24.876;2023-04-26T08:39:56;98663.59;;;17.73;50.12
44839;BME280;30576;42.098;24.876;2023-04-26T08:42:25;98658.81;;;17.64;50.42
44839;BME280;30576;42.098;24.876;2023-04-26T08:44:52;98692.06;;;18.03;50.54
44839;BME280;30576;42.098;24.876;2023-04-26T08:47:21;98739.97;;;18.91;49.44
44839;BME280;30576;42.098;24.876;2023-04-26T08:49:53;98706.66;;;17.81;46.97
44839;BME280;30576;42.098;24.876;2023-04-26T08:52:27;98699.78;;;17.63;48.22
44839;BME280;30576;42.098;24.876;2023-04-26T08:54:53;98664.50;;;17.43;48.81
44839;BME280;30576;42.098;24.876;2023-04-26T08:57:21;98702.72;;;18.17;49.12
44839;BME280;30576;42.098;24.876;2023-04-26T08:59:48;98660.47;;;18.53;48.18
44839;BME280;30576;42.098;24.876;2023-04-26T09:02:18;98669.06;;;18.43;45.28
44839;BME280;30576;42.098;24.876;2023-04-26T09:04:48;98681.56;;;19.12;46.90
44839;BME280;30576;42.098;24.876;2023-04-26T09:07:31;98658.13;;;19.43;46.29
44839;BME280;30576;42.098;24.876;2023-04-26T09:09:58;98657.19;;;19.57;47.88
44839;BME280;30576;42.098;24.876;2023-04-26T09:12:24;98653.78;;;19.55;45.18
44839;BME280;30576;42.098;24.876;2023-04-26T09:14:50;98635.97;;;19.81;45.77
44839;BME280;30576;42.098;24.876;2023-04-26T09:17:37;98624.19;;;19.83;43.95
44839;BME280;30576;42.098;24.876;2023-04-26T09:23:04;98624.09;;;19.85;44.74
44839;BME280;30576;42.098;24.876;2023-04-26T09:25:31;98635.88;;;19.29;43.70
44839;BME280;30576;42.098;24.876;2023-04-26T09:27:57;98632.66;;;19.77;45.24
44839;BME280;30576;42.098;24.876;2023-04-26T09:30:24;98633.88;;;19.72;47.11
44839;BME280;30576;42.098;24.876;2023-04-26T09:33:02;98626.47;;;19.37;47.47
44839;BME280;30576;42.098;24.876;2023-04-26T09:35:38;98615.44;;;19.28;47.60
44839;BME280;30576;42.098;24.876;2023-04-26T09:38:40;98690.91;;;19.72;47.04
44839;BME280;30576;42.098;24.876;2023-04-26T09:41:06;98626.97;;;19.16;47.01
44839;BME280;30576;42.098;24.876;2023-04-26T09:43:36;98616.75;;;19.36;49.76
44839;BME280;30576;42.098;24.876;2023-04-26T09:46:02;98644.94;;;19.80;48.79
44839;BME280;30576;42.098;24.876;2023-04-26T09:48:29;98614.53;;;19.94;46.52
44839;BME280;30576;42.098;24.876;2023-04-26T09:51:07;98642.53;;;20.39;45.85
44839;BME280;30576;42.098;24.876;2023-04-26T09:53:47;98631.25;;;20.47;45.76
44839;BME280;30576;42.098;24.876;2023-04-26T09:56:19;98686.47;;;20.87;45.23
44839;BME280;30576;42.098;24.876;2023-04-26T10:01:13;98641.56;;;21.02;44.49
44839;BME280;30576;42.098;24.876;2023-04-26T10:03:43;98654.38;;;21.34;42.34
44839;BME280;30576;42.098;24.876;2023-04-26T10:06:11;98632.94;;;21.34;44.10
44839;BME280;30576;42.098;24.876;2023-04-26T10:08:38;98616.28;;;21.17;42.01
44839;BME280;30576;42.098;24.876;2023-04-26T10:11:05;98613.22;;;21.10;43.37
44839;BME280;30576;42.098;24.876;2023-04-26T10:13:35;98626.50;;;21.48;43.80
44839;BME280;30576;42.098;24.876;2023-04-26T10:16:02;98615.53;;;21.04;44.30
44839;BME280;30576;42.098;24.876;2023-04-26T10:18:31;98628.50;;;21.21;43.02
44839;BME280;30576;42.098;24.876;2023-04-26T10:21:05;98604.03;;;21.02;43.18
44839;BME280;30576;42.098;24.876;2023-04-26T10:23:32;98627.31;;;21.01;42.48
44839;BME280;30576;42.098;24.876;2023-04-26T10:25:58;98623.94;;;21.10;43.08
44839;BME280;30576;42.098;24.876;2023-04-26T10:31:05;98647.38;;;20.58;39.94
44839;BME280;30576;42.098;24.876;2023-04-26T10:33:43;98610.88;;;20.08;40.23
44839;BME280;30576;42.098;24.876;2023-04-26T10:39:28;98651.50;;;20.51;38.47
44839;BME280;30576;42.098;24.876;2023-04-26T10:42:32;98679.19;;;20.63;42.34
44839;BME280;30576;42.098;24.876;2023-04-26T10:44:59;98648.63;;;19.64;47.56
44839;BME280;30576;42.098;24.876;2023-04-26T10:47:44;98614.44;;;19.17;50.24
44839;BME280;30576;42.098;24.876;2023-04-26T10:50:11;98607.63;;;18.85;49.09
44839;BME280;30576;42.098;24.876;2023-04-26T10:53:04;98666.94;;;19.05;49.52
44839;BME280;30576;42.098;24.876;2023-04-26T10:55:39;98577.44;;;18.29;53.61
44839;BME280;30576;42.098;24.876;2023-04-26T10:58:28;98679.19;;;18.80;55.08
44839;BME280;30576;42.098;24.876;2023-04-26T11:01:03;98685.81;;;18.60;57.63
44839;BME280;30576;42.098;24.876;2023-04-26T11:03:29;98615.13;;;17.22;61.68
44839;BME280;30576;42.098;24.876;2023-04-26T11:05:56;98656.53;;;16.81;65.88
44839;BME280;30576;42.098;24.876;2023-04-26T11:10:56;98588.84;;;15.56;70.06
44839;BME280;30576;42.098;24.876;2023-04-26T11:13:22;98618.41;;;15.32;71.67
44839;BME280;30576;42.098;24.876;2023-04-26T11:15:59;98679.50;;;15.67;70.67
44839;BME280;30576;42.098;24.876;2023-04-26T11:18:30;98616.06;;;15.44;72.57
44839;BME280;30576;42.098;24.876;2023-04-26T11:20:57;98668.94;;;15.83;73.81
44839;BME280;30576;42.098;24.876;2023-04-26T11:23:24;98659.38;;;15.97;73.84
44839;BME280;30576;42.098;24.876;2023-04-26T11:25:50;98589.25;;;15.48;75.88
44839;BME280;30576;42.098;24.876;2023-04-26T11:28:17;98643.31;;;15.82;74.73
44839;BME280;30576;42.098;24.876;2023-04-26T11:30:43;98668.69;;;16.05;74.24
44839;BME280;30576;42.098;24.876;2023-04-26T11:33:20;98597.25;;;15.64;74.04
44839;BME280;30576;42.098;24.876;2023-04-26T11:35:49;98652.25;;;15.46;78.38
44839;BME280;30576;42.098;24.876;2023-04-26T11:38:15;98641.19;;;15.71;77.02
44839;BME280;30576;42.098;24.876;2023-04-26T11:40:41;98630.88;;;15.83;78.01
44839;BME280;30576;42.098;24.876;2023-04-26T11:43:08;98685.38;;;16.41;76.63
44839;BME280;30576;42.098;24.876;2023-04-26T11:45:35;98678.72;;;16.16;72.43
44839;BME280;30576;42.098;24.876;2023-04-26T11:48:02;98669.53;;;16.22;72.33
44839;BME280;30576;42.098;24.876;2023-04-26T11:50:32;98632.13;;;16.09;73.19
44839;BME280;30576;42.098;24.876;2023-04-26T11:53:00;98645.09;;;16.15;75.04
44839;BME280;30576;42.098;24.876;2023-04-26T11:55:29;98708.66;;;16.53;75.39
44839;BME280;30576;42.098;24.876;2023-04-26T11:57:58;98624.53;;;15.85;74.48
44839;BME280;30576;42.098;24.876;2023-04-26T12:00:24;98655.88;;;15.96;74.35
44839;BME280;30576;42.098;24.876;2023-04-26T12:02:50;98637.31;;;15.79;74.89
44839;BME280;30576;42.098;24.876;2023-04-26T12:05:35;98656.38;;;16.03;74.80
44839;BME280;30576;42.098;24.876;2023-04-26T12:08:01;98641.59;;;15.97;74.92
44839;BME280;30576;42.098;24.876;2023-04-26T12:10:36;98676.56;;;16.07;74.62
44839;BME280;30576;42.098;24.876;2023-04-26T12:13:02;98711.91;;;16.42;73.38
44839;BME280;30576;42.098;24.876;2023-04-26T12:15:31;98634.50;;;15.98;73.82
44839;BME280;30576;42.098;24.876;2023-04-26T12:18:08;98667.84;;;16.37;72.74
44839;BME280;30576;42.098;24.876;2023-04-26T12:20:35;98641.25;;;16.21;73.21
44839;BME280;30576;42.098;24.876;2023-04-26T12:23:06;98673.78;;;16.42;74.06
44839;BME280;30576;42.098;24.876;2023-04-26T12:25:33;98659.59;;;16.57;74.92
44839;BME280;30576;42.098;24.876;2023-04-26T12:28:08;98646.63;;;16.83;70.50
44839;BME280;30576;42.098;24.876;2023-04-26T12:30:36;98663.50;;;16.99;69.13
44839;BME280;30576;42.098;24.876;2023-04-26T12:33:02;98648.53;;;16.97;67.59
44839;BME280;30576;42.098;24.876;2023-04-26T12:35:29;98639.41;;;16.85;67.16
44839;BME280;30576;42.098;24.876;2023-04-26T12:37:57;98673.75;;;17.22;67.92
44839;BME280;30576;42.098;24.876;2023-04-26T12:40:25;98665.03;;;16.88;66.84
44839;BME280;30576;42.098;24.876;2023-04-26T12:42:51;98689.50;;;16.94;68.34
44839;BME280;30576;42.098;24.876;2023-04-26T12:45:18;98643.72;;;16.56;67.94
44839;BME280;30576;42.098;24.876;2023-04-26T12:47:44;98657.97;;;16.39;68.12
44839;BME280;30576;42.098;24.876;2023-04-26T12:50:11;98681.59;;;16.45;67.75
44839;BME280;30576;42.098;24.876;2023-04-26T12:52:40;98713.25;;;16.34;67.19
44839;BME280;30576;42.098;24.876;2023-04-26T12:55:08;98603.50;;;15.81;68.03
44839;BME280;30576;42.098;24.876;2023-04-26T12:57:39;98669.53;;;16.06;66.71
44839;BME280;30576;42.098;24.876;2023-04-26T13:00:06;98617.88;;;15.76;67.07
44839;BME280;30576;42.098;24.876;2023-04-26T13:02:32;98659.72;;;15.90;68.07
44839;BME280;30576;42.098;24.876;2023-04-26T13:04:59;98636.72;;;15.72;68.95
44839;BME280;30576;42.098;24.876;2023-04-26T13:07:26;98617.88;;;15.76;70.20
44839;BME280;30576;42.098;24.876;2023-04-26T13:09:52;98668.44;;;15.92;69.27
44839;BME280;30576;42.098;24.876;2023-04-26T13:15:18;98638.25;;;15.60;71.33
44839;BME280;30576;42.098;24.876;2023-04-26T13:17:47;98651.13;;;15.68;69.69
44839;BME280;30576;42.098;24.876;2023-04-26T13:20:13;98676.97;;;15.99;70.16
44839;BME280;30576;42.098;24.876;2023-04-26T13:22:40;98659.41;;;16.13;70.09
44839;BME280;30576;42.098;24.876;2023-04-26T13:25:07;98639.53;;;15.69;68.60